Puerto Goya, Argentina
Current Conditions -  °F | °C
As of 9:00 AM on Monday 20 Oct 2014 (Local Time) from SARE Reporting Station
Clear Clear  
Wind Chill: 73°   Ceiling: Unl
Heat Index: 73°   Visibility: 6mi
Dew Point: 59°   Wind: 10mph
Humidity: 61%   Direction: 90°E
Pressure: 30.06"   Gusts: NA
Location:  29.15°S, 59.33°W
Report Text: SARE 201200Z 09009KT CAVOK 23/15 Q1018
Loading
Personal Weather Stations






























Interactive Weather Map
Tropical Storm Tracking
New forecast layout! Learn more

10-Day Weather Forecast

Advertisements
Track Severe Weather on mobile